Time;durP1;ratioP1;P1;durP2;ratioP2;P2;SDS_P1;SDS_P2;PMS_P1;PMS_P2;Temp;Humidity;BMP_temperature;BMP_pressure;BME280_temperature;BME280_humidity;BME280_pressure;Samples;Min_cycle;Max_cycle;Signal;HPM_P1;HPM_P2
2022/06/19 00:00:27;;;;;;;17.20;3.10;;;;;;;;;;4965944;28;20042;-62
2022/06/19 00:02:53;;;;;;;18.87;3.20;;;;;;;;;;4971113;28;20101;-62
2022/06/19 00:05:20;;;;;;;20.60;4.00;;;;;;;;;;4968915;28;20039;-62
2022/06/19 00:07:48;;;;;;;21.47;4.30;;;;;;;;;;4968675;28;20057;-61
2022/06/19 00:10:14;;;;;;;18.03;3.20;;;;;;;;;;4970223;28;20142;-61
2022/06/19 00:12:40;;;;;;;20.40;3.40;;;;;;;;;;4971056;28;20138;-61
2022/06/19 00:15:06;;;;;;;21.43;4.57;;;;;;;;;;4970898;28;20501;-61
2022/06/19 00:17:33;;;;;;;23.50;3.77;;;;;;;;;;4971048;28;20106;-61
2022/06/19 00:19:59;;;;;;;16.73;3.73;;;;;;;;;;4972010;28;20049;-62
2022/06/19 00:22:24;;;;;;;17.70;3.37;;;;;;;;;;4967607;28;20130;-61
2022/06/19 00:24:51;;;;;;;21.50;3.87;;;;;;;;;;4972237;28;20054;-61
2022/06/19 00:27:17;;;;;;;18.80;3.27;;;;;;;;;;4971621;28;20046;-61
2022/06/19 00:29:43;;;;;;;11.83;3.10;;;;;;;;;;4963624;28;20405;-62
2022/06/19 00:32:09;;;;;;;22.57;3.63;;;;;;;;;;4971859;28;20042;-61
2022/06/19 00:34:36;;;;;;;18.47;3.07;;;;;;;;;;4968087;28;20113;-61
2022/06/19 00:37:03;;;;;;;21.00;3.50;;;;;;;;;;4969173;28;20158;-61
2022/06/19 00:39:31;;;;;;;20.83;3.17;;;;;;;;;;4969005;28;20404;-61
2022/06/19 00:41:57;;;;;;;16.37;3.20;;;;;;;;;;4971622;28;20147;-62
2022/06/19 00:44:23;;;;;;;16.13;3.47;;;;;;;;;;4971603;28;20050;-62
2022/06/19 00:46:51;;;;;;;20.60;3.57;;;;;;;;;;4971386;28;20061;-62
2022/06/19 00:49:23;;;;;;;16.13;3.07;;;;;;;;;;4971271;28;20465;-62
2022/06/19 00:51:53;;;;;;;18.57;3.13;;;;;;;;;;4971753;28;20490;-62
2022/06/19 00:54:21;;;;;;;20.37;3.83;;;;;;;;;;4988415;28;20055;-61
2022/06/19 00:56:47;;;;;;;19.67;3.10;;;;;;;;;;4990717;28;20138;-61
2022/06/19 00:59:14;;;;;;;16.87;2.93;;;;;;;;;;4990435;28;20046;-61
2022/06/19 01:01:41;;;;;;;23.90;3.60;;;;;;;;;;4990269;28;20457;-62
2022/06/19 01:04:28;;;;;;;15.80;3.00;;;;;;;;;;4990706;28;20500;-61
2022/06/19 01:06:54;;;;;;;17.80;2.77;;;;;;;;;;4990019;28;20153;-61
2022/06/19 01:09:20;;;;;;;21.07;3.77;;;;;;;;;;4990399;28;20050;-61
2022/06/19 01:11:46;;;;;;;18.67;3.10;;;;;;;;;;4973502;28;20053;-62
2022/06/19 01:14:15;;;;;;;16.83;2.67;;;;;;;;;;4977333;28;20133;-61
2022/06/19 01:16:41;;;;;;;10.97;2.80;;;;;;;;;;4990118;28;20054;-62
2022/06/19 01:19:08;;;;;;;14.70;3.13;;;;;;;;;;4990109;28;20085;-61
2022/06/19 01:21:43;;;;;;;21.23;2.97;;;;;;;;;;4989754;28;20105;-62
2022/06/19 01:24:17;;;;;;;16.20;2.70;;;;;;;;;;4990392;28;20046;-62
2022/06/19 01:26:45;;;;;;;12.10;2.43;;;;;;;;;;4990330;28;20109;-62
2022/06/19 01:29:12;;;;;;;16.97;2.67;;;;;;;;;;4989828;28;20522;-62
2022/06/19 01:31:43;;;;;;;14.17;2.53;;;;;;;;;;4990036;28;20624;-62
2022/06/19 01:34:27;;;;;;;11.40;2.80;;;;;;;;;;4989465;28;20101;-62
2022/06/19 01:36:56;;;;;;;15.17;2.77;;;;;;;;;;4990189;28;20500;-62
2022/06/19 01:39:23;;;;;;;15.03;2.93;;;;;;;;;;4989886;28;20038;-62
2022/06/19 01:41:49;;;;;;;18.17;3.03;;;;;;;;;;4989830;28;20112;-62
2022/06/19 01:44:15;;;;;;;12.53;2.63;;;;;;;;;;4989856;28;20046;-61
2022/06/19 01:46:41;;;;;;;15.23;2.37;;;;;;;;;;4989504;28;20054;-62
2022/06/19 01:49:07;;;;;;;15.07;3.27;;;;;;;;;;4990028;28;20046;-62
2022/06/19 01:51:33;;;;;;;10.87;2.40;;;;;;;;;;4990003;28;20046;-61
2022/06/19 01:54:06;;;;;;;7.90;2.27;;;;;;;;;;4989274;28;20061;-62
2022/06/19 01:56:32;;;;;;;10.38;1.88;;;;;;;;;;4989912;28;20089;-62
2022/06/19 01:59:02;;;;;;;13.93;2.40;;;;;;;;;;4989090;28;20050;-61
2022/06/19 02:01:29;;;;;;;11.30;2.37;;;;;;;;;;4988280;28;20048;-62
2022/06/19 02:03:56;;;;;;;8.63;1.83;;;;;;;;;;4988060;28;20381;-62
2022/06/19 02:06:28;;;;;;;12.77;2.17;;;;;;;;;;4987514;28;20054;-61
2022/06/19 02:08:54;;;;;;;11.67;2.00;;;;;;;;;;4987966;28;20084;-62
2022/06/19 02:11:21;;;;;;;11.87;2.50;;;;;;;;;;4988421;28;20042;-61
2022/06/19 02:13:48;;;;;;;8.57;1.70;;;;;;;;;;4987350;28;20558;-61
2022/06/19 02:16:16;;;;;;;9.23;1.70;;;;;;;;;;4988712;28;20129;-61
2022/06/19 02:18:43;;;;;;;6.37;1.50;;;;;;;;;;4989126;28;20056;-62
2022/06/19 02:21:13;;;;;;;9.13;1.73;;;;;;;;;;4988822;28;20038;-62
2022/06/19 02:23:39;;;;;;;11.20;1.90;;;;;;;;;;4989628;28;20052;-62
2022/06/19 02:26:09;;;;;;;15.60;2.03;;;;;;;;;;4988492;28;20049;-61
2022/06/19 02:28:36;;;;;;;10.33;2.03;;;;;;;;;;4989304;28;20046;-62
2022/06/19 02:31:03;;;;;;;14.97;2.37;;;;;;;;;;4988929;28;20043;-61
2022/06/19 02:33:31;;;;;;;10.80;2.20;;;;;;;;;;4989247;28;20056;-62
2022/06/19 02:35:57;;;;;;;11.53;1.70;;;;;;;;;;4988430;28;20056;-62
2022/06/19 02:38:24;;;;;;;14.03;2.10;;;;;;;;;;4988356;28;20126;-62
2022/06/19 02:40:50;;;;;;;16.60;2.63;;;;;;;;;;4988637;28;20046;-62
2022/06/19 02:43:18;;;;;;;15.67;2.50;;;;;;;;;;4988552;28;20042;-62
2022/06/19 02:45:44;;;;;;;17.60;2.17;;;;;;;;;;4988898;28;20081;-62
2022/06/19 02:48:18;;;;;;;12.83;2.50;;;;;;;;;;4988674;28;20496;-62
2022/06/19 02:50:44;;;;;;;6.23;1.53;;;;;;;;;;4988408;28;20034;-61
2022/06/19 02:53:10;;;;;;;13.57;2.17;;;;;;;;;;4988528;28;20077;-62
2022/06/19 02:55:36;;;;;;;13.60;2.90;;;;;;;;;;4988694;28;20845;-62
2022/06/19 02:58:02;;;;;;;11.23;2.40;;;;;;;;;;4988491;28;20058;-62
2022/06/19 03:00:28;;;;;;;12.23;2.43;;;;;;;;;;4988379;28;20042;-62
2022/06/19 03:03:06;;;;;;;15.93;2.50;;;;;;;;;;4988578;28;20101;-61
2022/06/19 03:05:32;;;;;;;15.47;3.03;;;;;;;;;;4988489;28;20089;-62
2022/06/19 03:07:58;;;;;;;7.97;2.43;;;;;;;;;;4986719;28;20509;-62
2022/06/19 03:10:24;;;;;;;16.07;2.60;;;;;;;;;;4988326;28;20046;-61
2022/06/19 03:12:50;;;;;;;7.53;2.03;;;;;;;;;;4988617;28;20046;-61
2022/06/19 03:15:17;;;;;;;10.77;2.20;;;;;;;;;;4988556;28;20138;-61
2022/06/19 03:17:44;;;;;;;15.97;2.47;;;;;;;;;;4988565;28;20049;-62
2022/06/19 03:20:14;;;;;;;16.63;2.60;;;;;;;;;;4988444;28;20046;-61
2022/06/19 03:22:40;;;;;;;17.70;2.40;;;;;;;;;;4987907;28;20046;-61
2022/06/19 03:25:06;;;;;;;13.60;3.23;;;;;;;;;;4988257;28;20179;-61
2022/06/19 03:27:32;;;;;;;16.53;2.70;;;;;;;;;;4987740;28;20515;-61
2022/06/19 03:29:58;;;;;;;20.73;3.03;;;;;;;;;;4988070;28;20120;-62
2022/06/19 03:32:24;;;;;;;16.87;3.00;;;;;;;;;;4988294;28;20050;-62
2022/06/19 03:34:50;;;;;;;12.53;2.30;;;;;;;;;;4989184;28;20054;-62
2022/06/19 03:37:16;;;;;;;20.50;4.30;;;;;;;;;;4988873;28;20046;-62
2022/06/19 03:39:42;;;;;;;14.87;2.03;;;;;;;;;;4988974;28;20065;-61
2022/06/19 03:42:10;;;;;;;12.73;2.53;;;;;;;;;;4987809;28;20043;-61
2022/06/19 03:44:36;;;;;;;18.10;3.37;;;;;;;;;;4990932;28;20057;-62
2022/06/19 03:47:02;;;;;;;14.47;2.57;;;;;;;;;;4992183;28;20084;-62
2022/06/19 03:49:29;;;;;;;15.13;2.23;;;;;;;;;;4991645;28;20133;-62
2022/06/19 03:51:57;;;;;;;8.87;2.10;;;;;;;;;;4992200;28;20050;-61
2022/06/19 03:54:23;;;;;;;8.30;2.40;;;;;;;;;;4991710;28;20061;-62
2022/06/19 03:56:49;;;;;;;12.20;2.27;;;;;;;;;;4991387;28;20047;-62
2022/06/19 03:59:15;;;;;;;18.03;2.23;;;;;;;;;;4991862;28;20050;-61
2022/06/19 04:01:42;;;;;;;11.67;2.33;;;;;;;;;;4986996;28;20046;-61
2022/06/19 04:04:09;;;;;;;10.90;2.07;;;;;;;;;;4990712;28;20042;-61
2022/06/19 04:06:36;;;;;;;12.53;2.30;;;;;;;;;;4990253;28;20097;-61
2022/06/19 04:09:04;;;;;;;11.17;2.33;;;;;;;;;;4990327;28;20034;-62
2022/06/19 04:11:30;;;;;;;12.47;2.57;;;;;;;;;;4986955;28;20039;-62
2022/06/19 04:13:56;;;;;;;10.70;2.60;;;;;;;;;;4987085;28;20121;-62
2022/06/19 04:16:30;;;;;;;12.17;2.83;;;;;;;;;;4989996;28;20041;-62
2022/06/19 04:18:56;;;;;;;13.20;2.47;;;;;;;;;;4989952;28;20039;-62
2022/06/19 04:21:27;;;;;;;14.97;1.97;;;;;;;;;;4990047;28;20074;-62
2022/06/19 04:23:54;;;;;;;14.13;2.50;;;;;;;;;;4987188;28;20046;-61
2022/06/19 04:26:21;;;;;;;7.93;2.03;;;;;;;;;;4989704;28;20038;-62
2022/06/19 04:28:47;;;;;;;24.37;3.87;;;;;;;;;;4983182;28;20082;-61
2022/06/19 04:31:13;;;;;;;15.07;2.50;;;;;;;;;;4990294;28;20086;-61
2022/06/19 04:33:40;;;;;;;14.20;2.53;;;;;;;;;;4987295;28;20115;-62
2022/06/19 04:36:10;;;;;;;10.00;2.07;;;;;;;;;;4989618;28;20046;-61
2022/06/19 04:38:37;;;;;;;15.73;2.00;;;;;;;;;;4984281;28;20453;-62
2022/06/19 04:41:03;;;;;;;17.60;2.23;;;;;;;;;;4989096;28;20042;-61
2022/06/19 04:43:29;;;;;;;14.00;2.53;;;;;;;;;;4989638;28;20508;-62
2022/06/19 04:46:05;;;;;;;9.93;2.43;;;;;;;;;;4989471;28;20074;-62
2022/06/19 04:48:32;;;;;;;10.63;1.93;;;;;;;;;;4989486;28;20088;-62
2022/06/19 04:50:58;;;;;;;9.23;1.93;;;;;;;;;;4989868;28;20161;-62
2022/06/19 04:53:24;;;;;;;10.47;2.03;;;;;;;;;;4988876;28;20050;-61
2022/06/19 04:55:50;;;;;;;12.10;2.37;;;;;;;;;;4988421;28;20524;-62
2022/06/19 04:58:24;;;;;;;12.70;1.90;;;;;;;;;;4989260;28;20053;-62
2022/06/19 05:00:50;;;;;;;17.40;2.23;;;;;;;;;;4988927;28;20120;-61
2022/06/19 05:03:17;;;;;;;12.10;1.90;;;;;;;;;;4986805;28;20042;-62
2022/06/19 05:05:43;;;;;;;7.07;1.63;;;;;;;;;;4989833;28;20046;-62
2022/06/19 05:08:12;;;;;;;10.00;1.83;;;;;;;;;;4986779;28;20148;-62
2022/06/19 05:10:39;;;;;;;9.73;1.97;;;;;;;;;;4983477;28;20101;-62
2022/06/19 05:13:06;;;;;;;10.93;2.03;;;;;;;;;;4985309;28;20523;-62
2022/06/19 05:15:35;;;;;;;9.07;1.80;;;;;;;;;;4988918;28;20046;-62
2022/06/19 05:18:01;;;;;;;10.77;1.77;;;;;;;;;;4985142;28;20097;-62
2022/06/19 05:20:27;;;;;;;9.00;1.80;;;;;;;;;;4986367;28;20118;-62
2022/06/19 05:22:57;;;;;;;12.37;2.20;;;;;;;;;;4978899;28;20042;-62
2022/06/19 05:25:23;;;;;;;9.67;1.53;;;;;;;;;;4990026;28;20120;-62
2022/06/19 05:27:49;;;;;;;8.60;2.20;;;;;;;;;;4989820;28;20081;-62
2022/06/19 05:30:15;;;;;;;10.43;2.63;;;;;;;;;;4988277;28;20502;-62
2022/06/19 05:32:44;;;;;;;7.57;1.90;;;;;;;;;;4989169;28;20137;-62
2022/06/19 05:35:13;;;;;;;10.57;1.97;;;;;;;;;;4988866;28;20103;-62
2022/06/19 05:37:39;;;;;;;9.53;2.00;;;;;;;;;;4989488;28;20057;-62
2022/06/19 05:40:05;;;;;;;9.27;2.20;;;;;;;;;;4989070;28;20104;-62
2022/06/19 05:42:31;;;;;;;8.70;1.97;;;;;;;;;;4983068;28;20046;-62
2022/06/19 05:44:57;;;;;;;6.57;1.97;;;;;;;;;;4985668;28;20054;-62
2022/06/19 05:47:26;;;;;;;15.03;2.63;;;;;;;;;;4983683;28;20049;-62
2022/06/19 05:49:52;;;;;;;10.73;2.10;;;;;;;;;;4988443;28;20047;-62
2022/06/19 05:52:20;;;;;;;11.60;2.50;;;;;;;;;;4988930;28;20102;-62
2022/06/19 05:54:46;;;;;;;11.90;2.77;;;;;;;;;;4989277;28;20082;-62
2022/06/19 05:57:12;;;;;;;8.83;2.33;;;;;;;;;;4988971;28;20046;-62
2022/06/19 05:59:38;;;;;;;12.03;2.40;;;;;;;;;;4989634;28;20705;-60
2022/06/19 06:02:05;;;;;;;12.97;2.10;;;;;;;;;;4989032;28;20051;-60
2022/06/19 06:04:31;;;;;;;13.67;3.60;;;;;;;;;;4989389;28;20068;-61
2022/06/19 06:06:57;;;;;;;11.33;2.33;;;;;;;;;;4989491;28;20133;-61
2022/06/19 06:09:23;;;;;;;16.10;2.50;;;;;;;;;;4979280;28;20077;-61
2022/06/19 06:11:49;;;;;;;11.07;2.00;;;;;;;;;;4989578;28;20097;-60
2022/06/19 06:14:15;;;;;;;16.10;2.63;;;;;;;;;;4988557;28;20496;-60
2022/06/19 06:16:41;;;;;;;8.17;1.80;;;;;;;;;;4989182;28;20152;-60
2022/06/19 06:19:07;;;;;;;14.17;2.13;;;;;;;;;;4989388;28;20046;-61
2022/06/19 06:21:33;;;;;;;11.77;3.10;;;;;;;;;;4989580;28;20061;-61
2022/06/19 06:27:11;;;;;;;14.23;2.23;;;;;;;;;;4988587;28;20101;-61
2022/06/19 06:29:37;;;;;;;11.73;2.27;;;;;;;;;;4989548;28;20094;-61
2022/06/19 06:32:03;;;;;;;11.63;2.30;;;;;;;;;;4989754;28;20053;-62
2022/06/19 06:34:29;;;;;;;12.47;2.03;;;;;;;;;;4989694;28;20062;-61
2022/06/19 06:43:34;;;;;;;11.30;1.70;;;;;;;;;;4989277;28;20444;-61
2022/06/19 06:46:07;;;;;;;11.67;1.83;;;;;;;;;;4988896;28;20070;-61
2022/06/19 06:48:36;;;;;;;8.27;1.80;;;;;;;;;;4989560;28;20046;-61
2022/06/19 06:51:09;;;;;;;15.03;2.10;;;;;;;;;;4988985;28;20100;-61
2022/06/19 06:53:35;;;;;;;9.60;1.67;;;;;;;;;;4989161;28;20054;-61
2022/06/19 06:56:01;;;;;;;10.90;1.83;;;;;;;;;;4987622;28;20050;-61
2022/06/19 06:58:27;;;;;;;10.00;2.53;;;;;;;;;;4989465;28;20046;-61
2022/06/19 07:00:54;;;;;;;7.50;1.60;;;;;;;;;;4989249;28;20133;-61
2022/06/19 07:03:21;;;;;;;14.10;2.10;;;;;;;;;;4989208;28;20436;-61
2022/06/19 07:05:47;;;;;;;10.60;2.10;;;;;;;;;;4988812;28;20042;-61
2022/06/19 07:08:13;;;;;;;10.47;2.00;;;;;;;;;;4989311;28;20113;-61
2022/06/19 07:10:39;;;;;;;9.87;2.13;;;;;;;;;;4989469;28;20046;-61
2022/06/19 07:13:08;;;;;;;7.33;1.50;;;;;;;;;;4989240;28;20058;-61
2022/06/19 07:15:34;;;;;;;8.03;2.30;;;;;;;;;;4989274;28;20099;-61
2022/06/19 07:18:22;;;;;;;10.70;2.17;;;;;;;;;;4988923;28;20820;-61
2022/06/19 07:20:56;;;;;;;9.47;1.70;;;;;;;;;;4992492;28;20046;-61
2022/06/19 07:24:02;;;;;;;8.33;1.97;;;;;;;;;;4992687;28;20042;-61
2022/06/19 07:26:32;;;;;;;6.23;1.67;;;;;;;;;;4991324;28;20077;-61
2022/06/19 07:29:08;;;;;;;7.83;2.00;;;;;;;;;;4994673;28;20049;-61
2022/06/19 07:31:34;;;;;;;9.83;2.10;;;;;;;;;;4992564;28;20054;-61
2022/06/19 07:34:03;;;;;;;11.43;2.10;;;;;;;;;;4992617;28;20049;-61
2022/06/19 07:36:29;;;;;;;7.07;1.67;;;;;;;;;;4992685;28;20053;-61
2022/06/19 07:38:56;;;;;;;10.83;2.40;;;;;;;;;;4992454;28;20042;-61
2022/06/19 07:41:22;;;;;;;8.47;1.83;;;;;;;;;;4991975;28;20077;-62
2022/06/19 07:43:50;;;;;;;11.97;1.97;;;;;;;;;;4992753;28;20050;-61
2022/06/19 07:46:19;;;;;;;12.70;2.40;;;;;;;;;;4991415;28;20046;-60
2022/06/19 07:51:31;;;;;;;7.50;2.37;;;;;;;;;;4991757;28;20516;-61
2022/06/19 08:00:53;;;;;;;9.50;1.80;;;;;;;;;;4972873;28;20809;-61
2022/06/19 08:03:19;;;;;;;10.53;2.07;;;;;;;;;;4972400;28;20142;-61
2022/06/19 08:06:00;;;;;;;9.87;2.77;;;;;;;;;;4971557;28;20073;-61
2022/06/19 08:08:32;;;;;;;13.57;2.27;;;;;;;;;;4972523;28;20557;-61
2022/06/19 08:10:59;;;;;;;12.30;2.43;;;;;;;;;;4972634;28;20050;-61
2022/06/19 08:13:29;;;;;;;11.93;2.67;;;;;;;;;;4990720;28;20042;-61
2022/06/19 08:16:02;;;;;;;9.67;2.37;;;;;;;;;;4992190;28;20124;-61
2022/06/19 08:18:43;;;;;;;12.77;2.72;;;;;;;;;;4991796;28;20401;-61
2022/06/19 08:21:09;;;;;;;13.00;2.33;;;;;;;;;;4992219;28;20105;-61
2022/06/19 08:23:35;;;;;;;11.83;2.40;;;;;;;;;;4991678;28;20520;-61
2022/06/19 08:26:40;;;;;;;9.53;2.40;;;;;;;;;;4991532;28;20389;-61
2022/06/19 08:29:06;;;;;;;9.23;2.37;;;;;;;;;;4988473;28;20171;-61
2022/06/19 08:31:33;;;;;;;12.13;2.00;;;;;;;;;;4989842;28;20042;-61
2022/06/19 08:34:02;;;;;;;13.67;2.60;;;;;;;;;;4987605;28;20047;-62
2022/06/19 08:36:29;;;;;;;10.30;2.50;;;;;;;;;;4990505;28;20085;-60
2022/06/19 08:39:01;;;;;;;11.13;2.33;;;;;;;;;;4989788;28;20042;-61
2022/06/19 08:41:32;;;;;;;12.95;2.60;;;;;;;;;;4989911;28;20044;-61
2022/06/19 08:44:04;;;;;;;12.83;2.73;;;;;;;;;;4987467;28;20038;-61
2022/06/19 08:46:33;;;;;;;13.87;2.53;;;;;;;;;;4989102;28;20050;-61
2022/06/19 08:49:02;;;;;;;14.37;2.57;;;;;;;;;;4987684;28;20062;-61
2022/06/19 08:51:39;;;;;;;13.50;2.80;;;;;;;;;;4990017;28;20060;-61
2022/06/19 08:54:10;;;;;;;13.77;2.70;;;;;;;;;;4985649;28;20058;-61
2022/06/19 08:56:58;;;;;;;12.57;2.07;;;;;;;;;;4989979;28;20129;-61
2022/06/19 08:59:43;;;;;;;12.73;2.53;;;;;;;;;;4983069;28;20096;-61
2022/06/19 09:02:19;;;;;;;13.37;2.50;;;;;;;;;;4990435;28;20696;-61
2022/06/19 09:07:54;;;;;;;11.47;2.70;;;;;;;;;;4990503;28;20050;-61
2022/06/19 09:10:20;;;;;;;13.47;1.93;;;;;;;;;;4990407;28;20064;-61
2022/06/19 09:13:04;;;;;;;14.43;2.30;;;;;;;;;;4990647;28;20050;-61
2022/06/19 09:15:36;;;;;;;12.90;2.93;;;;;;;;;;4990770;28;20062;-62
2022/06/19 09:18:02;;;;;;;11.60;2.83;;;;;;;;;;4990480;28;20054;-61
2022/06/19 09:20:41;;;;;;;12.97;2.63;;;;;;;;;;4988932;28;20168;-61
2022/06/19 09:23:13;;;;;;;12.37;2.50;;;;;;;;;;4990076;28;20527;-61
2022/06/19 09:25:44;;;;;;;13.00;3.20;;;;;;;;;;4973126;28;20062;-61
2022/06/19 09:28:27;;;;;;;19.43;4.00;;;;;;;;;;4990235;28;20107;-61
2022/06/19 09:30:56;;;;;;;12.77;2.13;;;;;;;;;;4990640;28;20535;-62
2022/06/19 09:33:22;;;;;;;14.23;2.97;;;;;;;;;;4990165;28;20043;-62
2022/06/19 09:35:52;;;;;;;12.53;2.47;;;;;;;;;;4990583;28;20511;-61
2022/06/19 09:38:18;;;;;;;13.83;2.57;;;;;;;;;;4989893;28;20054;-62
2022/06/19 09:40:46;;;;;;;13.50;3.60;;;;;;;;;;4990443;28;20057;-62
2022/06/19 09:43:12;;;;;;;17.00;2.53;;;;;;;;;;4989305;28;20042;-61
2022/06/19 09:45:58;;;;;;;10.83;2.40;;;;;;;;;;4990187;28;20109;-62
2022/06/19 09:48:30;;;;;;;10.17;2.23;;;;;;;;;;4974582;28;20186;-61
2022/06/19 09:51:08;;;;;;;8.97;2.80;;;;;;;;;;4989045;28;20042;-62
2022/06/19 09:53:40;;;;;;;8.20;1.70;;;;;;;;;;4980526;28;20054;-62
2022/06/19 09:56:13;;;;;;;12.73;2.27;;;;;;;;;;4989427;28;20055;-62
2022/06/19 09:58:54;;;;;;;13.27;2.90;;;;;;;;;;4989674;28;20053;-62
2022/06/19 10:01:23;;;;;;;10.17;1.83;;;;;;;;;;4989152;28;20174;-62
2022/06/19 10:04:10;;;;;;;14.77;2.77;;;;;;;;;;4988739;28;20042;-62
2022/06/19 10:06:36;;;;;;;10.57;1.80;;;;;;;;;;4988345;28;20058;-62
2022/06/19 10:09:05;;;;;;;11.13;2.40;;;;;;;;;;4987959;28;20464;-62
2022/06/19 10:11:33;;;;;;;10.07;2.70;;;;;;;;;;4988121;28;20046;-62
2022/06/19 10:14:01;;;;;;;7.73;1.90;;;;;;;;;;4988299;28;20420;-62
2022/06/19 10:16:46;;;;;;;8.03;1.80;;;;;;;;;;4988621;28;20086;-61
2022/06/19 10:19:32;;;;;;;8.73;1.80;;;;;;;;;;4988151;28;20081;-63
2022/06/19 10:22:15;;;;;;;6.67;1.37;;;;;;;;;;4988678;28;20046;-63
2022/06/19 10:24:41;;;;;;;8.37;1.60;;;;;;;;;;4988980;28;20051;-62
2022/06/19 10:27:07;;;;;;;12.43;2.47;;;;;;;;;;4988612;28;20046;-63
2022/06/19 10:29:38;;;;;;;8.93;2.17;;;;;;;;;;4989003;28;20050;-63
2022/06/19 10:32:07;;;;;;;9.00;1.90;;;;;;;;;;4989055;28;20145;-62
2022/06/19 10:34:41;;;;;;;10.40;2.33;;;;;;;;;;4971674;28;20050;-63
2022/06/19 10:37:10;;;;;;;7.10;1.67;;;;;;;;;;4988357;28;20052;-63
2022/06/19 10:39:45;;;;;;;5.43;2.00;;;;;;;;;;4989184;28;20046;-63
2022/06/19 10:42:30;;;;;;;7.03;1.37;;;;;;;;;;4988684;28;20058;-63
2022/06/19 10:45:02;;;;;;;5.60;1.30;;;;;;;;;;4988983;28;20048;-60
2022/06/19 10:47:37;;;;;;;7.17;1.97;;;;;;;;;;4988978;28;20054;-60
2022/06/19 10:50:03;;;;;;;6.77;1.60;;;;;;;;;;4988612;28;20081;-60
2022/06/19 10:52:40;;;;;;;6.93;1.60;;;;;;;;;;4988755;28;20050;-62
2022/06/19 10:55:09;;;;;;;9.33;2.37;;;;;;;;;;4991723;28;20038;-62
2022/06/19 10:57:44;;;;;;;7.10;1.30;;;;;;;;;;4993094;28;20050;-62
2022/06/19 11:00:11;;;;;;;6.77;1.63;;;;;;;;;;4992321;28;20050;-62
2022/06/19 11:05:33;;;;;;;7.57;1.43;;;;;;;;;;4992883;28;20825;-62
2022/06/19 11:07:59;;;;;;;7.37;1.50;;;;;;;;;;4992790;28;20046;-62
2022/06/19 11:10:45;;;;;;;6.63;1.70;;;;;;;;;;4992520;28;20046;-62
2022/06/19 11:13:12;;;;;;;7.67;1.67;;;;;;;;;;4991889;28;20116;-62
2022/06/19 11:15:41;;;;;;;8.23;1.87;;;;;;;;;;4992747;28;20046;-62
2022/06/19 11:18:07;;;;;;;7.50;2.00;;;;;;;;;;4992450;28;20070;-62
2022/06/19 11:20:33;;;;;;;7.67;1.43;;;;;;;;;;4992640;28;20053;-62
2022/06/19 11:23:01;;;;;;;5.90;1.37;;;;;;;;;;4992291;28;20609;-61
2022/06/19 11:25:27;;;;;;;8.30;1.50;;;;;;;;;;4991974;28;20046;-62
2022/06/19 11:28:12;;;;;;;7.80;1.70;;;;;;;;;;4992470;28;20049;-62
2022/06/19 11:30:50;;;;;;;7.30;1.53;;;;;;;;;;4992359;28;20428;-62
2022/06/19 11:33:18;;;;;;;10.03;1.90;;;;;;;;;;4992065;28;20042;-62
2022/06/19 11:35:53;;;;;;;6.00;1.30;;;;;;;;;;4992105;28;20046;-62
2022/06/19 11:38:34;;;;;;;8.90;2.30;;;;;;;;;;4992020;28;20057;-62
2022/06/19 11:41:00;;;;;;;10.10;2.07;;;;;;;;;;4991952;28;20803;-62
2022/06/19 11:43:30;;;;;;;3.90;1.00;;;;;;;;;;4992244;28;20043;-62
2022/06/19 11:46:07;;;;;;;7.37;1.40;;;;;;;;;;4991554;28;20500;-62
2022/06/19 11:48:33;;;;;;;9.03;1.73;;;;;;;;;;4991937;28;20600;-61
2022/06/19 11:51:00;;;;;;;8.60;1.70;;;;;;;;;;4991743;28;20038;-61
2022/06/19 11:53:39;;;;;;;6.20;1.63;;;;;;;;;;4991607;28;20058;-62
2022/06/19 11:56:22;;;;;;;9.20;1.73;;;;;;;;;;4991418;28;20068;-63
2022/06/19 11:58:53;;;;;;;6.43;1.35;;;;;;;;;;4991963;28;20085;-62
2022/06/19 12:01:21;;;;;;;4.43;1.20;;;;;;;;;;4991671;28;20137;-61
2022/06/19 12:03:48;;;;;;;7.27;1.47;;;;;;;;;;4991273;28;20050;-62
2022/06/19 12:06:16;;;;;;;8.17;1.77;;;;;;;;;;4990936;28;20042;-61
2022/06/19 12:08:55;;;;;;;6.53;1.83;;;;;;;;;;4991891;28;20046;-62
2022/06/19 12:11:41;;;;;;;7.43;1.40;;;;;;;;;;4991676;28;20058;-62
2022/06/19 12:14:08;;;;;;;8.17;1.33;;;;;;;;;;4991590;28;20108;-61
2022/06/19 12:16:34;;;;;;;7.03;1.83;;;;;;;;;;4991577;28;20050;-61
2022/06/19 12:19:14;;;;;;;5.03;1.27;;;;;;;;;;4991344;28;20050;-62
2022/06/19 12:21:54;;;;;;;7.57;1.47;;;;;;;;;;4991485;28;20385;-61
2022/06/19 12:24:23;;;;;;;4.37;1.70;;;;;;;;;;4990890;28;20113;-61
2022/06/19 12:26:52;;;;;;;2.90;1.00;;;;;;;;;;4991393;28;20050;-61
2022/06/19 12:29:32;;;;;;;5.13;1.47;;;;;;;;;;4991121;28;20042;-61
2022/06/19 12:32:02;;;;;;;6.23;1.97;;;;;;;;;;4991031;28;20046;-61
2022/06/19 12:34:30;;;;;;;6.33;1.20;;;;;;;;;;4990814;28;20096;-61
2022/06/19 12:36:58;;;;;;;5.78;1.25;;;;;;;;;;4991094;28;20145;-61
2022/06/19 12:39:26;;;;;;;5.03;1.25;;;;;;;;;;4990828;28;20042;-61
2022/06/19 12:42:01;;;;;;;3.35;0.88;;;;;;;;;;4991239;28;20046;-61
2022/06/19 12:44:47;;;;;;;4.68;1.33;;;;;;;;;;4991367;28;20073;-61
2022/06/19 12:47:19;;;;;;;7.18;1.70;;;;;;;;;;4976743;28;20060;-62
2022/06/19 12:49:58;;;;;;;5.32;1.13;;;;;;;;;;4990518;28;20042;-62
2022/06/19 12:52:24;;;;;;;5.10;1.25;;;;;;;;;;4990971;28;20047;-61
2022/06/19 12:55:00;;;;;;;4.28;1.20;;;;;;;;;;4990252;28;20065;-62
2022/06/19 12:57:35;;;;;;;5.28;1.30;;;;;;;;;;4990636;28;20481;-62
2022/06/19 13:00:11;;;;;;;5.35;1.15;;;;;;;;;;4990508;28;20046;-61
2022/06/19 13:02:47;;;;;;;3.70;0.90;;;;;;;;;;4990533;28;20063;-61
2022/06/19 13:05:19;;;;;;;3.45;1.15;;;;;;;;;;4990142;28;20043;-62
2022/06/19 13:07:46;;;;;;;;;;;;;;;;;;4991232;28;20059;-61
2022/06/19 13:10:24;;;;;;;3.85;1.20;;;;;;;;;;4990835;28;20454;-61
2022/06/19 13:12:56;;;;;;;3.70;0.95;;;;;;;;;;4990993;28;20085;-61
2022/06/19 13:15:40;;;;;;;5.93;1.80;;;;;;;;;;4990719;28;20054;-61
2022/06/19 13:18:16;;;;;;;6.22;1.38;;;;;;;;;;4990170;28;20043;-61
2022/06/19 13:20:45;;;;;;;5.35;1.40;;;;;;;;;;4990800;28;20050;-61
2022/06/19 13:23:16;;;;;;;6.60;1.30;;;;;;;;;;4990335;28;20053;-61
2022/06/19 13:25:49;;;;;;;3.85;1.00;;;;;;;;;;4990526;28;20049;-61
2022/06/19 13:28:15;;;;;;;5.07;1.05;;;;;;;;;;4990229;28;20058;-61
2022/06/19 13:30:53;;;;;;;4.28;1.13;;;;;;;;;;4989435;28;20054;-61
2022/06/19 13:33:34;;;;;;;3.47;1.30;;;;;;;;;;4988552;28;20046;-63
2022/06/19 13:36:07;;;;;;;4.55;1.40;;;;;;;;;;4986732;28;20046;-61
2022/06/19 13:38:59;;;;;;;2.85;0.95;;;;;;;;;;4988792;28;20038;-61
2022/06/19 13:41:28;;;;;;;6.35;1.30;;;;;;;;;;4985682;28;20061;-61
2022/06/19 13:43:57;;;;;;;4.70;0.77;;;;;;;;;;4988624;28;20550;-61
2022/06/19 13:46:36;;;;;;;5.47;1.35;;;;;;;;;;4988263;28;20046;-61
2022/06/19 13:49:12;;;;;;;4.38;1.42;;;;;;;;;;4987341;28;20429;-61
2022/06/19 13:51:58;;;;;;;3.30;1.10;;;;;;;;;;4989867;28;20058;-61
2022/06/19 13:54:27;;;;;;;2.67;0.90;;;;;;;;;;4989913;28;20058;-60
2022/06/19 13:57:03;;;;;;;3.30;0.90;;;;;;;;;;4989839;28;20062;-61
2022/06/19 13:59:32;;;;;;;3.88;1.10;;;;;;;;;;4989737;28;20416;-61
2022/06/19 14:01:58;;;;;;;2.85;0.90;;;;;;;;;;4989822;28;20424;-61
2022/06/19 14:04:46;;;;;;;4.35;0.77;;;;;;;;;;4988748;28;20615;-61
2022/06/19 14:07:24;;;;;;;2.22;0.80;;;;;;;;;;4989995;28;20085;-61
2022/06/19 14:10:09;;;;;;;3.58;1.15;;;;;;;;;;4989056;28;20047;-61
2022/06/19 14:12:40;;;;;;;3.78;1.10;;;;;;;;;;4991015;28;20042;-60
2022/06/19 14:15:10;;;;;;;3.75;0.70;;;;;;;;;;4987989;28;20639;-60
2022/06/19 14:17:40;;;;;;;2.30;0.63;;;;;;;;;;4989268;28;20416;-61
2022/06/19 14:20:07;;;;;;;4.43;0.77;;;;;;;;;;4989289;28;20661;-61
2022/06/19 14:22:48;;;;;;;4.65;1.17;;;;;;;;;;4988130;28;20414;-61
2022/06/19 14:25:30;;;;;;;4.85;0.98;;;;;;;;;;4985282;28;20042;-61
2022/06/19 14:27:59;;;;;;;4.10;1.00;;;;;;;;;;4985249;28;20563;-61
2022/06/19 14:30:26;;;;;;;5.05;0.95;;;;;;;;;;4988229;28;20181;-61
2022/06/19 14:32:55;;;;;;;2.90;0.80;;;;;;;;;;4989454;28;20042;-61
2022/06/19 14:35:29;;;;;;;2.95;0.80;;;;;;;;;;4988972;28;20110;-61
2022/06/19 14:38:01;;;;;;;2.67;0.82;;;;;;;;;;4989390;28;20046;-61
2022/06/19 14:40:29;;;;;;;3.97;0.98;;;;;;;;;;4989137;28;20066;-61
2022/06/19 14:42:59;;;;;;;2.92;0.95;;;;;;;;;;4989328;28;20051;-60
2022/06/19 14:45:45;;;;;;;3.17;0.90;;;;;;;;;;4989189;28;20057;-61
2022/06/19 14:48:11;;;;;;;4.72;0.88;;;;;;;;;;4988922;28;20178;-61
2022/06/19 14:50:55;;;;;;;2.85;0.90;;;;;;;;;;4989562;28;20087;-61
2022/06/19 14:53:24;;;;;;;8.80;1.40;;;;;;;;;;4988012;28;20097;-61
2022/06/19 14:55:56;;;;;;;2.53;0.80;;;;;;;;;;4987806;28;20046;-61
2022/06/19 14:58:29;;;;;;;6.13;1.00;;;;;;;;;;4987903;28;20074;-61
2022/06/19 15:00:56;;;;;;;6.22;1.10;;;;;;;;;;4987157;28;20284;-61
2022/06/19 15:03:31;;;;;;;5.25;1.33;;;;;;;;;;4987748;28;20122;-61
2022/06/19 15:06:05;;;;;;;5.80;1.10;;;;;;;;;;4988897;28;20504;-61
2022/06/19 15:08:39;;;;;;;4.10;0.80;;;;;;;;;;4988883;28;20052;-61
2022/06/19 15:11:08;;;;;;;4.13;1.20;;;;;;;;;;4989069;28;20046;-61
2022/06/19 15:13:46;;;;;;;4.63;1.10;;;;;;;;;;4988951;28;20042;-62
2022/06/19 15:16:15;;;;;;;3.40;0.97;;;;;;;;;;4988590;28;20148;-61
2022/06/19 15:18:50;;;;;;;5.80;1.40;;;;;;;;;;4989075;28;20105;-62